createdAt,value
2014-08-14T00:00:39.252Z,69.13
2014-08-14T00:01:43.941Z,67.88
2014-08-14T00:02:48.615Z,68.06
2014-08-14T00:03:53.602Z,68.13
2014-08-14T00:04:58.885Z,67.89
2014-08-14T00:06:03.575Z,67.84
2014-08-14T00:07:08.264Z,67.68
2014-08-14T00:08:12.954Z,66.97
2014-08-14T00:09:17.628Z,66.98
2014-08-14T00:10:22.615Z,67.55
2014-08-14T00:11:27.601Z,67.15
2014-08-14T00:12:32.587Z,66.87
2014-08-14T00:13:37.261Z,67.32
2014-08-14T00:14:41.951Z,67.03
2014-08-14T00:15:45.938Z,68
2014-08-14T00:16:50.924Z,67.53
2014-08-14T00:17:55.911Z,68.2
2014-08-14T00:19:00.599Z,67.09
2014-08-14T00:20:05.571Z,67.18
2014-08-14T00:21:10.261Z,67.57
2014-08-14T00:22:14.950Z,67.11
2014-08-14T00:23:19.624Z,67.5
2014-08-14T00:24:24.610Z,67.88
2014-08-14T00:25:29.300Z,67.9
2014-08-14T00:26:33.973Z,66.64
2014-08-14T00:27:38.663Z,66.94
2014-08-14T00:28:43.634Z,66.91
2014-08-14T00:29:48.323Z,66.89
2014-08-14T00:30:53.013Z,66.98
2014-08-14T00:31:57.999Z,66.99
2014-08-14T00:33:02.697Z,67.27
2014-08-14T00:34:07.727Z,66.34
2014-08-14T00:35:12.460Z,66.97
2014-08-14T00:36:17.471Z,66.82
2014-08-14T00:37:22.207Z,66.86
2014-08-14T00:38:26.914Z,66.7
2014-08-14T00:39:30.916Z,67.13
2014-08-14T00:40:35.621Z,66.94
2014-08-14T00:41:40.624Z,66.55
2014-08-14T00:42:45.326Z,66.86
2014-08-14T00:43:50.036Z,66.77
2014-08-14T00:44:54.732Z,66.9
2014-08-14T00:45:59.410Z,66.12
2014-08-14T00:47:04.106Z,65.95
2014-08-14T00:48:08.783Z,65.96
2014-08-14T00:49:13.475Z,66.95
2014-08-14T00:50:18.447Z,66.52
2014-08-14T00:51:23.139Z,67.1
2014-08-14T00:52:27.815Z,67.32
2014-08-14T00:53:32.506Z,67.47
2014-08-14T00:54:37.493Z,67.95
2014-08-14T00:55:42.167Z,68.22
2014-08-14T00:56:46.873Z,67.75
2014-08-14T00:57:51.563Z,68.37
2014-08-14T00:58:56.238Z,67.89
2014-08-14T01:00:00.928Z,67.2
2014-08-14T01:01:05.899Z,67.36
2014-08-14T01:02:10.589Z,67.95
2014-08-14T01:03:15.560Z,67.93
2014-08-14T01:04:20.250Z,67.64
2014-08-14T01:05:25.220Z,67.74
2014-08-14T01:06:29.911Z,66.81
2014-08-14T01:07:34.584Z,66.3
2014-08-14T01:08:39.274Z,66.36
2014-08-14T01:09:43.947Z,66.03
2014-08-14T01:10:48.637Z,66.51
2014-08-14T01:11:53.311Z,66.59
2014-08-14T01:12:58.001Z,67.17
2014-08-14T01:14:02.675Z,66.69
2014-08-14T01:15:07.364Z,66.26
2014-08-14T01:16:12.632Z,66.14
2014-08-14T01:17:17.322Z,66.08
2014-08-14T01:18:22.011Z,66.44
2014-08-14T01:19:26.686Z,66.73
2014-08-14T01:20:31.375Z,66.4
2014-08-14T01:21:36.048Z,66.24
2014-08-14T01:22:40.737Z,66
2014-08-14T01:23:45.412Z,66.54
2014-08-14T01:24:50.399Z,66.51
2014-08-14T01:25:55.073Z,67.29
2014-08-14T01:26:59.825Z,67.3
2014-08-14T01:28:04.498Z,66.59
2014-08-14T01:29:09.188Z,67.41
2014-08-14T01:30:14.159Z,67.53
2014-08-14T01:31:18.848Z,67.45
2014-08-14T01:32:23.522Z,66.56
2014-08-14T01:33:28.212Z,66.96
2014-08-14T01:34:33.183Z,66.97
2014-08-14T01:35:37.872Z,67.03
2014-08-14T01:36:42.859Z,67.09
2014-08-14T01:37:47.533Z,67.08
2014-08-14T01:38:52.223Z,67.29
2014-08-14T01:39:56.896Z,67.27
2014-08-14T01:41:01.586Z,67.24
2014-08-14T01:42:06.556Z,66.97
2014-08-14T01:43:11.246Z,67.24
2014-08-14T01:44:15.920Z,67.21
2014-08-14T01:45:20.610Z,66.94
2014-08-14T01:46:25.284Z,66.81
2014-08-14T01:47:30.270Z,67.97
2014-08-14T01:48:34.959Z,67.57
2014-08-14T01:49:39.633Z,68.28
2014-08-14T01:50:44.323Z,68.64
2014-08-14T01:51:49.310Z,68.18
2014-08-14T01:52:54.280Z,67.91
2014-08-14T01:53:58.969Z,68.97
2014-08-14T01:55:03.644Z,68.17
2014-08-14T01:56:08.334Z,67.46
2014-08-14T01:57:13.008Z,68.58
2014-08-14T01:58:17.994Z,68.4
2014-08-14T01:59:22.668Z,69.94
2014-08-14T02:00:27.640Z,68.86
2014-08-14T02:01:32.328Z,68.87
2014-08-14T02:02:37.002Z,68.44
2014-08-14T02:03:41.692Z,68.22
2014-08-14T02:04:46.663Z,68.13
2014-08-14T02:05:51.352Z,68.19
2014-08-14T02:06:56.027Z,68.14
2014-08-14T02:08:01.012Z,67.73
2014-08-14T02:09:05.701Z,68.14
2014-08-14T02:10:10.376Z,67.98
2014-08-14T02:11:15.066Z,68.41
2014-08-14T02:12:20.052Z,67.51
2014-08-14T02:13:25.039Z,68.06
2014-08-14T02:14:29.712Z,68.09
2014-08-14T02:15:34.402Z,68.43
2014-08-14T02:16:39.076Z,69.09
2014-08-14T02:17:43.765Z,67.89
2014-08-14T02:18:48.439Z,67.61
2014-08-14T02:19:53.427Z,67.75
2014-08-14T02:20:58.100Z,66.61
2014-08-14T02:22:02.790Z,66.66
2014-08-14T02:23:07.463Z,66.71
2014-08-14T02:24:12.449Z,67.14
2014-08-14T02:25:17.124Z,67
2014-08-14T02:26:21.798Z,67.32
2014-08-14T02:27:26.487Z,66.95
2014-08-14T02:28:31.457Z,66.64
2014-08-14T02:29:36.147Z,66.71
2014-08-14T02:30:40.823Z,66.46
2014-08-14T02:31:45.808Z,67.11
2014-08-14T02:32:50.482Z,66.96
2014-08-14T02:33:55.172Z,67.74
2014-08-14T02:34:59.862Z,68.45
2014-08-14T02:36:04.535Z,68.14
2014-08-14T02:37:09.225Z,68.59
2014-08-14T02:38:13.899Z,68.11
2014-08-14T02:39:18.589Z,68.59
2014-08-14T02:40:23.559Z,68.01
2014-08-14T02:41:28.249Z,67.95
2014-08-14T02:42:32.938Z,68.79
2014-08-14T02:43:37.612Z,68.25
2014-08-14T02:44:42.302Z,67.95
2014-08-14T02:45:47.289Z,68.07
2014-08-14T02:46:51.962Z,68.03
2014-08-14T02:47:56.948Z,68.11
2014-08-14T02:49:01.919Z,67.83
2014-08-14T02:50:06.610Z,68.45
2014-08-14T02:51:11.299Z,68.42
2014-08-14T02:52:15.972Z,68.19
2014-08-14T02:53:20.661Z,68.59
2014-08-14T02:54:25.336Z,68.92
2014-08-14T02:55:30.322Z,68.48
2014-08-14T02:56:35.012Z,68.37
2014-08-14T02:57:39.686Z,68.11
2014-08-14T02:58:44.376Z,67.76
2014-08-14T02:59:49.346Z,68.29
2014-08-14T03:00:54.348Z,68.8
2014-08-14T03:01:59.038Z,68.62
2014-08-14T03:03:03.712Z,68.17
2014-08-14T03:04:08.402Z,68.51
2014-08-14T03:05:13.075Z,68.13
2014-08-14T03:06:17.765Z,68.25
2014-08-14T03:07:22.439Z,68.46
2014-08-14T03:08:27.129Z,69.08
2014-08-14T03:09:31.802Z,69.68
2014-08-14T03:10:36.491Z,69.6
2014-08-14T03:11:41.166Z,69.5
2014-08-14T03:12:45.856Z,68.71
2014-08-14T03:13:49.842Z,68.07
2014-08-14T03:14:54.532Z,67.93
2014-08-14T03:15:59.205Z,68.16
2014-08-14T03:17:03.895Z,69.23
2014-08-14T03:18:08.569Z,68.77
2014-08-14T03:19:13.555Z,69.48
2014-08-14T03:20:18.245Z,68.75
2014-08-14T03:21:23.216Z,68.59
2014-08-14T03:22:27.906Z,68.93
2014-08-14T03:23:32.594Z,68.93
2014-08-14T03:24:37.269Z,68.87
2014-08-14T03:25:41.958Z,68.74
2014-08-14T03:26:46.929Z,68.98
2014-08-14T03:27:51.697Z,69.34
2014-08-14T03:28:56.387Z,68.74
2014-08-14T03:30:01.062Z,68.47
2014-08-14T03:31:06.047Z,68.92
2014-08-14T03:32:10.721Z,68.91
2014-08-14T03:33:15.411Z,69
2014-08-14T03:34:20.429Z,69.15
2014-08-14T03:35:25.102Z,68.61
2014-08-14T03:36:30.089Z,69
2014-08-14T03:37:34.763Z,68.3
2014-08-14T03:38:39.453Z,68.3
2014-08-14T03:39:44.423Z,68.65
2014-08-14T03:40:49.113Z,69.06
2014-08-14T03:41:53.786Z,69.67
2014-08-14T03:42:58.476Z,69.28
2014-08-14T03:44:03.150Z,69.59
2014-08-14T03:45:08.136Z,69.35
2014-08-14T03:46:13.107Z,69.65
2014-08-14T03:47:17.797Z,69.88
2014-08-14T03:48:22.487Z,69.68
2014-08-14T03:49:27.160Z,69.08
2014-08-14T03:50:31.850Z,69.09
2014-08-14T03:51:36.571Z,69.95
2014-08-14T03:52:41.261Z,69.99
2014-08-14T03:53:45.949Z,68.93
2014-08-14T03:54:50.921Z,68.78
2014-08-14T03:55:55.611Z,68.78
2014-08-14T03:57:00.581Z,69.54
2014-08-14T03:58:05.271Z,70.01
2014-08-14T03:59:09.945Z,69.42
2014-08-14T04:00:14.634Z,69.39
2014-08-14T04:01:19.308Z,69.6
2014-08-14T04:02:23.999Z,69.95
2014-08-14T04:03:28.688Z,69.9
2014-08-14T04:04:33.658Z,69.81
2014-08-14T04:05:38.645Z,70.34
2014-08-14T04:06:43.319Z,70.37
2014-08-14T04:07:48.305Z,69.96
2014-08-14T04:08:53.292Z,69.62
2014-08-14T04:09:57.965Z,69.73
2014-08-14T04:11:02.655Z,69.28
2014-08-14T04:12:07.642Z,68.86
2014-08-14T04:13:12.315Z,69.02
2014-08-14T04:14:17.302Z,69.33
2014-08-14T04:15:21.976Z,69.49
2014-08-14T04:16:26.665Z,70.03
2014-08-14T04:17:31.355Z,69.78
2014-08-14T04:18:36.030Z,69.36
2014-08-14T04:19:40.718Z,69.67
2014-08-14T04:20:45.392Z,69.63
2014-08-14T04:21:50.378Z,69.09
2014-08-14T04:22:55.053Z,68.81
2014-08-14T04:23:59.742Z,69.05
2014-08-14T04:25:04.432Z,69.84
2014-08-14T04:26:09.122Z,68.11
2014-08-14T04:27:14.092Z,67.99
2014-08-14T04:28:19.079Z,67.29
2014-08-14T04:29:24.065Z,67.71
2014-08-14T04:30:28.755Z,67.8
2014-08-14T04:31:33.726Z,67.9
2014-08-14T04:32:38.415Z,68.04
2014-08-14T04:33:43.104Z,67.34
2014-08-14T04:34:47.795Z,67.01
2014-08-14T04:35:52.468Z,67.52
2014-08-14T04:36:57.455Z,67.28
2014-08-14T04:38:02.145Z,67.6
2014-08-14T04:39:06.819Z,66.97
2014-08-14T04:40:11.508Z,66.8
2014-08-14T04:41:16.198Z,67.58
2014-08-14T04:42:20.871Z,66.86
2014-08-14T04:43:25.873Z,66.62
2014-08-14T04:44:30.563Z,65.89
2014-08-14T04:45:35.549Z,67.04
2014-08-14T04:46:40.536Z,65.94
2014-08-14T04:47:45.211Z,66.43
2014-08-14T04:48:49.899Z,67.47
2014-08-14T04:49:54.885Z,66.91
2014-08-14T04:50:59.857Z,66.92
2014-08-14T04:52:04.843Z,66.6
2014-08-14T04:53:09.830Z,66.9
2014-08-14T04:54:14.800Z,66.48
2014-08-14T04:55:19.490Z,66.26
2014-08-14T04:56:24.180Z,67.09
2014-08-14T04:57:29.166Z,66.21
2014-08-14T04:58:33.840Z,65.57
2014-08-14T04:59:38.529Z,65.95
2014-08-14T05:00:43.516Z,65.61
2014-08-14T05:01:48.205Z,64.89
2014-08-14T05:02:52.879Z,65.41
2014-08-14T05:03:57.569Z,65.16
2014-08-14T05:05:02.853Z,64.92
2014-08-14T05:06:07.855Z,65.26
2014-08-14T05:07:12.543Z,65
2014-08-14T05:08:17.515Z,65.43
2014-08-14T05:09:21.516Z,65.58
2014-08-14T05:10:26.207Z,64.86
2014-08-14T05:11:30.881Z,64.82
2014-08-14T05:12:35.570Z,65.25
2014-08-14T05:13:40.556Z,65.05
2014-08-14T05:14:45.543Z,64.5
2014-08-14T05:15:50.530Z,65.59
2014-08-14T05:16:55.203Z,64.72
2014-08-14T05:17:59.894Z,66.23
2014-08-14T05:19:04.880Z,66.46
2014-08-14T05:20:09.568Z,65.9
2014-08-14T05:21:14.540Z,65.73
2014-08-14T05:22:19.230Z,65.5
2014-08-14T05:23:23.919Z,65.49
2014-08-14T05:24:28.593Z,65.91
2014-08-14T05:25:33.579Z,66.71
2014-08-14T05:26:38.269Z,66.48
2014-08-14T05:27:43.255Z,66.05
2014-08-14T05:28:47.945Z,66.71
2014-08-14T05:29:52.619Z,67.56
2014-08-14T05:30:57.308Z,67.6
2014-08-14T05:32:02.295Z,67.55
2014-08-14T05:33:06.985Z,66
2014-08-14T05:34:11.955Z,67.52
2014-08-14T05:35:16.661Z,67.5
2014-08-14T05:36:21.349Z,67.34
2014-08-14T05:37:26.024Z,66.76
2014-08-14T05:38:30.713Z,67.17
2014-08-14T05:39:35.402Z,67.24
2014-08-14T05:40:40.077Z,68.05
2014-08-14T05:41:44.782Z,66.69
2014-08-14T05:42:49.769Z,67.86
2014-08-14T05:43:54.444Z,68.08
2014-08-14T05:44:59.445Z,68.35
2014-08-14T05:46:04.134Z,68.14
2014-08-14T05:47:08.824Z,67.56
2014-08-14T05:48:13.514Z,66.92
2014-08-14T05:49:18.203Z,66.78
2014-08-14T05:50:22.877Z,67.14
2014-08-14T05:51:27.864Z,67.35
2014-08-14T05:52:32.537Z,67.41
2014-08-14T05:53:37.524Z,67.45
2014-08-14T05:54:42.214Z,66.32
2014-08-14T05:55:47.200Z,66.4
2014-08-14T05:56:52.186Z,66.74
2014-08-14T05:57:56.860Z,66.4
2014-08-14T05:59:01.550Z,65.94
2014-08-14T06:00:06.537Z,65.56
2014-08-14T06:01:11.522Z,66.47
2014-08-14T06:02:16.213Z,66.34
2014-08-14T06:03:20.901Z,65.98
2014-08-14T06:04:25.873Z,66
2014-08-14T06:05:30.860Z,65.85
2014-08-14T06:06:35.549Z,65.7
2014-08-14T06:07:40.239Z,67.13
2014-08-14T06:08:44.912Z,66.57
2014-08-14T06:09:49.602Z,66.13
2014-08-14T06:10:54.291Z,67.08
2014-08-14T06:11:58.981Z,66.53
2014-08-14T06:13:03.655Z,65.45
2014-08-14T06:14:08.376Z,65.09
2014-08-14T06:15:13.050Z,65.31
2014-08-14T06:16:18.036Z,65.18
2014-08-14T06:17:22.725Z,65.21
2014-08-14T06:18:27.697Z,65.74
2014-08-14T06:19:32.682Z,65.82
2014-08-14T06:20:37.357Z,65.87
2014-08-14T06:21:42.046Z,65.66
2014-08-14T06:22:46.720Z,65.96
2014-08-14T06:23:51.410Z,65.8
2014-08-14T06:24:56.084Z,66.78
2014-08-14T06:26:00.774Z,65.79
2014-08-14T06:27:05.760Z,66.17
2014-08-14T06:28:10.449Z,66.93
2014-08-14T06:29:15.139Z,66.94
2014-08-14T06:30:19.813Z,67.04
2014-08-14T06:31:24.799Z,65.84
2014-08-14T06:32:29.489Z,66.43
2014-08-14T06:33:34.460Z,65.7
2014-08-14T06:34:39.149Z,66.12
2014-08-14T06:35:43.823Z,64.93
2014-08-14T06:36:48.513Z,65.9
2014-08-14T06:37:53.187Z,65.57
2014-08-14T06:38:57.189Z,66.31
2014-08-14T06:40:01.879Z,66.41
2014-08-14T06:41:06.553Z,66.24
2014-08-14T06:42:11.539Z,66
2014-08-14T06:43:16.213Z,66.74
2014-08-14T06:44:20.902Z,66.29
2014-08-14T06:45:25.576Z,66.25
2014-08-14T06:46:30.563Z,65.47
2014-08-14T06:47:35.253Z,65.72
2014-08-14T06:48:39.926Z,65.47
2014-08-14T06:49:44.913Z,66.57
2014-08-14T06:50:49.587Z,66.25
2014-08-14T06:51:54.276Z,65.31
2014-08-14T06:52:58.966Z,64.97
2014-08-14T06:54:03.640Z,65.64
2014-08-14T06:55:08.330Z,64.3
2014-08-14T06:56:13.003Z,64.56
2014-08-14T06:57:17.693Z,64.82
2014-08-14T06:58:22.382Z,64.02
2014-08-14T06:59:27.056Z,63.86
2014-08-14T07:00:31.355Z,63.74
2014-08-14T07:01:36.029Z,64.11
2014-08-14T07:02:40.719Z,64.83
2014-08-14T07:03:45.393Z,64.21
2014-08-14T07:04:50.082Z,63.71
2014-08-14T07:05:54.756Z,64.09
2014-08-14T07:06:59.743Z,63.75
2014-08-14T07:08:04.730Z,64.26
2014-08-14T07:09:09.403Z,64.15
2014-08-14T07:10:14.109Z,63.58
2014-08-14T07:11:18.782Z,63.75
2014-08-14T07:12:23.472Z,63.37
2014-08-14T07:13:28.443Z,63.01
2014-08-14T07:14:33.132Z,62.7
2014-08-14T07:15:37.806Z,62.58
2014-08-14T07:16:42.497Z,63.02
2014-08-14T07:17:46.499Z,64.05
2014-08-14T07:18:51.172Z,64.04
2014-08-14T07:19:55.861Z,63.17
2014-08-14T07:21:00.550Z,63.2
2014-08-14T07:22:05.225Z,62.5
2014-08-14T07:23:09.914Z,63.19
2014-08-14T07:24:14.885Z,62.62
2014-08-14T07:25:19.872Z,62.8
2014-08-14T07:26:24.561Z,63.14
2014-08-14T07:27:29.235Z,63.54
2014-08-14T07:28:33.925Z,63.89
2014-08-14T07:29:38.614Z,63.63
2014-08-14T07:30:43.289Z,64.01
2014-08-14T07:31:48.276Z,63.5
2014-08-14T07:32:53.261Z,64.44
2014-08-14T07:33:58.247Z,63.85
2014-08-14T07:35:02.937Z,64.68
2014-08-14T07:36:07.626Z,64.69
2014-08-14T07:37:12.317Z,64.39
2014-08-14T07:38:17.005Z,64.59
2014-08-14T07:39:21.977Z,64.47
2014-08-14T07:40:26.667Z,64.6
2014-08-14T07:41:31.340Z,65.02
2014-08-14T07:42:36.030Z,64.64
2014-08-14T07:43:40.704Z,64.82
2014-08-14T07:44:45.690Z,64.87
2014-08-14T07:45:50.364Z,65.34
2014-08-14T07:46:55.054Z,66.41
2014-08-14T07:47:59.743Z,65.11
2014-08-14T07:49:04.433Z,65.03
2014-08-14T07:50:09.420Z,64.93
2014-08-14T07:51:14.093Z,64.47
2014-08-14T07:52:18.782Z,64.64
2014-08-14T07:53:23.754Z,65.03
2014-08-14T07:54:28.444Z,64.98
2014-08-14T07:55:33.117Z,65.08
2014-08-14T07:56:37.807Z,64.95
2014-08-14T07:57:42.496Z,65.29
2014-08-14T07:58:47.170Z,65.27
2014-08-14T07:59:51.860Z,65.14
2014-08-14T08:00:56.847Z,64.56
2014-08-14T08:02:01.520Z,64.78
2014-08-14T08:03:06.506Z,64.42
2014-08-14T08:04:11.478Z,64.81
2014-08-14T08:05:16.167Z,64.81
2014-08-14T08:06:20.857Z,64.9
2014-08-14T08:07:25.531Z,64.61
2014-08-14T08:08:30.221Z,64.81
2014-08-14T08:09:34.910Z,64.86
2014-08-14T08:10:39.584Z,64.67
2014-08-14T08:11:44.273Z,65.12
2014-08-14T08:12:48.947Z,65.6
2014-08-14T08:13:53.934Z,65.13
2014-08-14T08:14:58.921Z,64.5
2014-08-14T08:16:03.594Z,64.67
2014-08-14T08:17:08.283Z,64.5
2014-08-14T08:18:13.099Z,64.89
2014-08-14T08:19:17.772Z,63.91
2014-08-14T08:20:22.758Z,64.79
2014-08-14T08:21:27.448Z,64.2
2014-08-14T08:22:32.123Z,64.65
2014-08-14T08:23:37.109Z,63.74
2014-08-14T08:24:41.798Z,64.64
2014-08-14T08:25:46.472Z,64.91
2014-08-14T08:26:51.161Z,64.62
2014-08-14T08:27:55.851Z,64.57
2014-08-14T08:29:00.525Z,64.53
2014-08-14T08:30:05.215Z,64.92
2014-08-14T08:31:09.890Z,64
2014-08-14T08:32:14.579Z,64.32
2014-08-14T08:33:19.252Z,63.9
2014-08-14T08:34:23.941Z,64.14
2014-08-14T08:35:28.616Z,64.11
2014-08-14T08:36:33.602Z,64.37
2014-08-14T08:37:38.292Z,64.51
2014-08-14T08:38:42.981Z,63.84
2014-08-14T08:39:47.656Z,63.7
2014-08-14T08:40:52.345Z,63.38
2014-08-14T08:41:57.049Z,63.76
2014-08-14T08:43:01.739Z,63.59
2014-08-14T08:44:06.415Z,63.76
2014-08-14T08:45:11.103Z,63.35
2014-08-14T08:46:16.074Z,63.19
2014-08-14T08:47:20.764Z,63.41
2014-08-14T08:48:25.453Z,63.01
2014-08-14T08:49:30.424Z,63.08
2014-08-14T08:50:35.114Z,63.42
2014-08-14T08:51:39.787Z,62.53
2014-08-14T08:52:44.774Z,62.94
2014-08-14T08:53:49.463Z,62.44
2014-08-14T08:54:54.434Z,63.42
2014-08-14T08:55:59.124Z,63.7
2014-08-14T08:57:04.110Z,62.09
2014-08-14T08:58:08.784Z,61.73
2014-08-14T08:59:13.474Z,61.81
2014-08-14T09:00:18.446Z,61.54
2014-08-14T09:01:23.431Z,61.97
2014-08-14T09:02:28.120Z,61.57
2014-08-14T09:03:32.795Z,62.58
2014-08-14T09:04:37.484Z,61.81
2014-08-14T09:05:42.471Z,62.22
2014-08-14T09:06:47.442Z,61.72
2014-08-14T09:07:52.131Z,61.52
2014-08-14T09:08:56.820Z,62.06
2014-08-14T09:10:01.495Z,61.42
2014-08-14T09:11:06.481Z,61.44
2014-08-14T09:12:11.171Z,60.5
2014-08-14T09:13:15.846Z,60.86
2014-08-14T09:14:20.831Z,60.64
2014-08-14T09:15:25.505Z,60.52
2014-08-14T09:16:30.492Z,60.88
2014-08-14T09:17:35.181Z,59.99
2014-08-14T09:18:39.856Z,60.74
2014-08-14T09:19:44.560Z,60.06
2014-08-14T09:20:49.235Z,60.36
2014-08-14T09:21:54.221Z,61.11
2014-08-14T09:22:59.207Z,60.64
2014-08-14T09:24:03.897Z,60.06
2014-08-14T09:25:08.570Z,60.03
2014-08-14T09:26:13.260Z,59.31
2014-08-14T09:27:17.950Z,60.08
2014-08-14T09:28:22.640Z,59.54
2014-08-14T09:29:27.610Z,60.44
2014-08-14T09:30:32.393Z,60.55
2014-08-14T09:31:37.083Z,60.68
2014-08-14T09:32:41.758Z,60.87
2014-08-14T09:33:46.743Z,60.43
2014-08-14T09:34:51.433Z,61.4
2014-08-14T09:35:56.107Z,61.65
2014-08-14T09:37:00.796Z,61.51
2014-08-14T09:38:05.470Z,61.32
2014-08-14T09:39:10.172Z,61.06
2014-08-14T09:40:14.889Z,61.12
2014-08-14T09:41:19.622Z,61.16
2014-08-14T09:42:24.353Z,60.86
2014-08-14T09:43:29.070Z,62.05
2014-08-14T09:44:33.783Z,61.65
2014-08-14T09:45:38.473Z,61.55
2014-08-14T09:46:43.178Z,61.55
2014-08-14T09:47:47.868Z,61.47
2014-08-14T09:48:52.572Z,61.34
2014-08-14T09:49:57.252Z,61.58
2014-08-14T09:51:02.244Z,61.23
2014-08-14T09:52:06.940Z,61.28
2014-08-14T09:53:11.634Z,60.46
2014-08-14T09:54:16.313Z,60.38
2014-08-14T09:55:21.005Z,60.81
2014-08-14T09:56:25.681Z,60.61
2014-08-14T09:57:30.373Z,59.08
2014-08-14T09:58:35.049Z,59.38
2014-08-14T09:59:39.741Z,59.76
2014-08-14T10:00:44.711Z,59.64
2014-08-14T10:01:49.402Z,58.83
2014-08-14T10:02:54.108Z,58.33
2014-08-14T10:03:59.079Z,58.27
2014-08-14T10:05:03.769Z,58.11
2014-08-14T10:06:08.443Z,58.06
2014-08-14T10:07:13.429Z,58.53
2014-08-14T10:08:18.119Z,58.81
2014-08-14T10:09:22.793Z,58.62
2014-08-14T10:10:27.482Z,58.06
2014-08-14T10:11:32.172Z,57.43
2014-08-14T10:12:37.144Z,57.04
2014-08-14T10:13:42.129Z,58.83
2014-08-14T10:14:46.818Z,57.88
2014-08-14T10:15:51.493Z,56.86
2014-08-14T10:16:56.182Z,55.93
2014-08-14T10:18:00.856Z,57.66
2014-08-14T10:19:05.546Z,55.94
2014-08-14T10:20:10.236Z,54.57
2014-08-14T10:21:15.519Z,55.4
2014-08-14T10:22:20.193Z,55.46
2014-08-14T10:23:25.179Z,54.98
2014-08-14T10:24:29.869Z,54.57
2014-08-14T10:25:34.543Z,54.86
2014-08-14T10:26:39.529Z,54.55
2014-08-14T10:27:44.218Z,54.45
2014-08-14T10:28:48.908Z,54.96
2014-08-14T10:29:53.597Z,54.14
2014-08-14T10:30:58.272Z,54.76
2014-08-14T10:32:02.961Z,54.72
2014-08-14T10:33:07.635Z,53.19
2014-08-14T10:34:12.325Z,52.92
2014-08-14T10:35:17.015Z,52.75
2014-08-14T10:36:21.689Z,51.59
2014-08-14T10:37:26.675Z,52.52
2014-08-14T10:38:31.661Z,52.68
2014-08-14T10:39:36.335Z,52.73
2014-08-14T10:40:41.025Z,52.34
2014-08-14T10:41:45.714Z,52.41
2014-08-14T10:42:50.404Z,52.06
2014-08-14T10:43:55.078Z,51.81
2014-08-14T10:44:59.767Z,52.19
2014-08-14T10:46:04.441Z,52.21
2014-08-14T10:47:09.131Z,52.54
2014-08-14T10:48:13.820Z,53.09
2014-08-14T10:49:18.510Z,52.97
2014-08-14T10:50:23.200Z,52.35
2014-08-14T10:51:27.873Z,53.19
2014-08-14T10:52:32.562Z,51.26
2014-08-14T10:53:37.550Z,51.52
2014-08-14T10:54:42.520Z,52.22
2014-08-14T10:55:47.210Z,52.65
2014-08-14T10:56:51.899Z,53.76
2014-08-14T10:57:56.589Z,52.45
2014-08-14T10:59:01.263Z,53.7
2014-08-14T11:00:05.953Z,52.84
2014-08-14T11:01:10.642Z,52.83
2014-08-14T11:02:15.331Z,52.32
2014-08-14T11:03:20.006Z,53.19
2014-08-14T11:04:24.695Z,52.9
2014-08-14T11:05:28.995Z,51.73
2014-08-14T11:06:33.668Z,52.26
2014-08-14T11:07:38.358Z,53.34
2014-08-14T11:08:43.344Z,52.52
2014-08-14T11:09:48.034Z,52.7
2014-08-14T11:10:52.723Z,52.15
2014-08-14T11:11:57.413Z,51.63
2014-08-14T11:13:02.102Z,51.29
2014-08-14T11:14:07.073Z,51.84
2014-08-14T11:15:11.778Z,50.95
2014-08-14T11:16:16.468Z,51.71
2014-08-14T11:17:21.158Z,51.05
2014-08-14T11:18:25.831Z,51.51
2014-08-14T11:19:30.522Z,51.78
2014-08-14T11:20:35.211Z,50.25
2014-08-14T11:21:39.885Z,50.49
2014-08-14T11:22:44.871Z,50.63
2014-08-14T11:23:49.561Z,51.39
2014-08-14T11:24:54.547Z,48.77
2014-08-14T11:25:59.518Z,49.57
2014-08-14T11:27:04.504Z,50.66
2014-08-14T11:28:09.194Z,49.42
2014-08-14T11:29:13.883Z,47.57
2014-08-14T11:30:18.573Z,48.53
2014-08-14T11:31:23.559Z,50.02
2014-08-14T11:32:28.530Z,50.59
2014-08-14T11:33:33.220Z,48.76
2014-08-14T11:34:37.909Z,48.83
2014-08-14T11:35:42.599Z,50.13
2014-08-14T11:36:47.586Z,49.13
2014-08-14T11:37:52.572Z,50.27
2014-08-14T11:38:57.262Z,51.93
2014-08-14T11:40:01.936Z,49.6
2014-08-14T11:41:06.938Z,51.63
2014-08-14T11:42:11.611Z,50.66
2014-08-14T11:43:16.598Z,50.91
2014-08-14T11:44:21.287Z,49.77
2014-08-14T11:45:25.977Z,49.09
2014-08-14T11:46:30.964Z,48.52
2014-08-14T11:47:35.950Z,47.74
2014-08-14T11:48:40.640Z,49.96
2014-08-14T11:49:45.625Z,47.28
2014-08-14T11:50:50.597Z,48.6
2014-08-14T11:51:55.583Z,48.87
2014-08-14T11:53:00.273Z,49.36
2014-08-14T11:54:04.963Z,47.96
2014-08-14T11:55:09.652Z,47.59
2014-08-14T11:56:14.639Z,48.16
2014-08-14T11:57:19.328Z,48.61
2014-08-14T11:58:24.017Z,48.25
2014-08-14T11:59:29.004Z,49.7
2014-08-14T12:00:33.693Z,48.86
2014-08-14T12:01:38.664Z,49.17
2014-08-14T12:02:43.667Z,49.03
2014-08-14T12:03:48.652Z,47.77
2014-08-14T12:04:53.343Z,49.47
2014-08-14T12:05:58.031Z,48.29
2014-08-14T12:07:02.706Z,49.02
2014-08-14T12:08:07.693Z,49.53
2014-08-14T12:09:12.382Z,51.12
2014-08-14T12:10:17.056Z,52.46
2014-08-14T12:11:21.746Z,51.92
2014-08-14T12:12:26.420Z,51.95
2014-08-14T12:13:31.109Z,52.64
2014-08-14T12:14:36.095Z,54.02
2014-08-14T12:15:40.786Z,53.81
2014-08-14T12:16:45.771Z,51.97
2014-08-14T12:17:50.446Z,54.5
2014-08-14T12:18:55.136Z,52.89
2014-08-14T12:19:59.825Z,52.5
2014-08-14T12:21:04.796Z,51.67
2014-08-14T12:22:09.485Z,53.22
2014-08-14T12:23:14.175Z,50.27
2014-08-14T12:24:19.146Z,50.43
2014-08-14T12:25:23.835Z,50.13
2014-08-14T12:26:28.822Z,50.34
2014-08-14T12:27:33.511Z,49.27
2014-08-14T12:28:38.201Z,49.51
2014-08-14T12:29:43.187Z,46.73
2014-08-14T12:30:47.876Z,46.72
2014-08-14T12:31:52.863Z,46.93
2014-08-14T12:32:57.553Z,47.66
2014-08-14T12:34:02.524Z,46.58
2014-08-14T12:35:07.510Z,46.86
2014-08-14T12:36:12.200Z,48.09
2014-08-14T12:37:17.170Z,45.19
2014-08-14T12:38:21.860Z,43.27
2014-08-14T12:39:26.550Z,43.76
2014-08-14T12:40:31.239Z,43.21
2014-08-14T12:41:35.913Z,43.08
2014-08-14T12:42:40.603Z,43.5
2014-08-14T12:43:45.293Z,43.65
2014-08-14T12:44:49.278Z,44.72
2014-08-14T12:45:53.984Z,43.74
2014-08-14T12:46:58.674Z,43.59
2014-08-14T12:48:03.347Z,43.19
2014-08-14T12:49:08.037Z,43.21
2014-08-14T12:50:12.711Z,43.59
2014-08-14T12:51:17.400Z,42.28
2014-08-14T12:52:22.106Z,42.75
2014-08-14T12:53:26.795Z,43.34
2014-08-14T12:54:31.485Z,44.69
2014-08-14T12:55:36.159Z,42.38
2014-08-14T12:56:40.848Z,42.56
2014-08-14T12:57:45.836Z,43.64
2014-08-14T12:58:50.822Z,43.92
2014-08-14T12:59:55.792Z,43.53
2014-08-14T13:01:00.482Z,44.49
2014-08-14T13:02:05.484Z,44.95
2014-08-14T13:03:10.174Z,47.19
2014-08-14T13:04:14.848Z,48.79
2014-08-14T13:05:19.537Z,49.18
2014-08-14T13:06:24.227Z,49.33
2014-08-14T13:07:28.916Z,50.54
2014-08-14T13:08:33.590Z,51.58
2014-08-14T13:09:38.279Z,50.77
2014-08-14T13:10:43.266Z,50.35
2014-08-14T13:11:48.252Z,50.39
2014-08-14T13:12:52.942Z,49.8
2014-08-14T13:13:57.617Z,49.75
2014-08-14T13:15:02.306Z,49.78
2014-08-14T13:16:06.995Z,50.5
2014-08-14T13:17:11.669Z,50.41
2014-08-14T13:18:16.358Z,50.35
2014-08-14T13:19:21.048Z,49.74
2014-08-14T13:20:25.738Z,49.42
2014-08-14T13:21:30.708Z,49.13
2014-08-14T13:22:35.398Z,49.08
2014-08-14T13:23:40.385Z,49.5
2014-08-14T13:24:45.074Z,49.01
2014-08-14T13:25:50.045Z,49.55
2014-08-14T13:26:55.031Z,50.01
2014-08-14T13:27:59.721Z,49.34
2014-08-14T13:29:04.411Z,50.29
2014-08-14T13:30:09.100Z,50.47
2014-08-14T13:31:14.071Z,50.72
2014-08-14T13:32:18.760Z,50.5
2014-08-14T13:33:23.450Z,50.86
2014-08-14T13:34:28.140Z,51.84
2014-08-14T13:35:32.828Z,51.46
2014-08-14T13:36:37.800Z,52.13
2014-08-14T13:37:42.489Z,52.36
2014-08-14T13:38:47.476Z,52.68
2014-08-14T13:39:52.212Z,53.08
2014-08-14T13:40:56.902Z,53.43
2014-08-14T13:42:01.888Z,53.95
2014-08-14T13:43:06.875Z,53.9
2014-08-14T13:44:11.846Z,54.4
2014-08-14T13:45:16.536Z,54.69
2014-08-14T13:46:21.209Z,54.67
2014-08-14T13:47:25.899Z,54.64
2014-08-14T13:48:30.588Z,55.62
2014-08-14T13:49:35.560Z,53.09
2014-08-14T13:50:40.249Z,53.08
2014-08-14T13:51:44.939Z,53.22
2014-08-14T13:52:49.925Z,51.13
2014-08-14T13:53:54.599Z,50.35
2014-08-14T13:54:59.585Z,50.32
2014-08-14T13:56:04.275Z,50.07
2014-08-14T13:57:09.246Z,49.64